createdAt,value
2023-05-19T00:01:17.802Z,2.34
2023-05-19T00:03:57.549Z,2.19
2023-05-19T00:06:27.652Z,2.19
2023-05-19T00:09:00.164Z,2.07
2023-05-19T00:11:28.308Z,2.07
2023-05-19T00:13:56.970Z,2.03
2023-05-19T00:16:24.686Z,2.01
2023-05-19T00:18:51.856Z,1.91
2023-05-19T00:21:19.465Z,1.83
2023-05-19T00:23:46.324Z,1.81
2023-05-19T00:26:13.075Z,1.70
2023-05-19T00:28:39.938Z,1.66
2023-05-19T00:31:07.016Z,1.60
2023-05-19T00:33:34.021Z,1.57
2023-05-19T00:36:03.452Z,1.67
2023-05-19T00:38:34.843Z,1.75
2023-05-19T00:41:05.704Z,1.83
2023-05-19T00:43:34.408Z,1.79
2023-05-19T00:46:01.116Z,1.77
2023-05-19T00:48:28.074Z,1.63
2023-05-19T00:51:01.961Z,1.55
2023-05-19T00:53:29.510Z,1.46
2023-05-19T00:55:56.541Z,1.37
2023-05-19T00:58:25.671Z,1.41
2023-05-19T01:00:53.010Z,1.42
2023-05-19T01:03:20.760Z,1.35
2023-05-19T01:05:53.841Z,1.27
2023-05-19T01:08:20.641Z,1.26
2023-05-19T01:10:47.301Z,1.43
2023-05-19T01:13:14.417Z,1.58
2023-05-19T01:16:02.917Z,1.57
2023-05-19T01:18:42.612Z,1.43
2023-05-19T01:21:31.468Z,1.34
2023-05-19T01:24:14.349Z,1.31
2023-05-19T01:26:56.664Z,1.24
2023-05-19T01:30:17.072Z,1.19
2023-05-19T01:32:45.576Z,1.08
2023-05-19T01:35:15.652Z,1.01
2023-05-19T01:37:42.928Z,1.09
2023-05-19T01:40:10.505Z,1.00
2023-05-19T01:42:40.534Z,1.01
2023-05-19T01:47:55.816Z,1.00
2023-05-19T01:50:22.966Z,1.05
2023-05-19T01:52:50.257Z,1.17
2023-05-19T01:55:17.061Z,1.17
2023-05-19T01:58:19.619Z,1.11
2023-05-19T02:01:21.243Z,1.00
2023-05-19T02:04:09.574Z,0.95
2023-05-19T02:06:51.351Z,0.94
2023-05-19T02:09:39.768Z,0.89
2023-05-19T02:12:25.084Z,0.77
2023-05-19T02:15:05.565Z,0.70
2023-05-19T02:17:36.291Z,0.80
2023-05-19T02:20:04.926Z,0.70
2023-05-19T02:22:31.799Z,0.70
2023-05-19T02:24:58.514Z,0.62
2023-05-19T02:27:25.089Z,0.58
2023-05-19T02:29:52.733Z,0.68
2023-05-19T02:32:21.086Z,0.88
2023-05-19T02:34:47.989Z,0.89
2023-05-19T02:37:15.790Z,0.61
2023-05-19T02:39:44.393Z,0.58
2023-05-19T02:42:12.480Z,0.47
2023-05-19T02:44:39.193Z,0.50
2023-05-19T02:47:05.926Z,0.62
2023-05-19T02:49:36.103Z,0.55
2023-05-19T02:52:03.795Z,0.47
2023-05-19T02:54:31.534Z,0.40
2023-05-19T02:56:58.562Z,0.36
2023-05-19T02:59:25.800Z,0.55
2023-05-19T03:01:57.524Z,0.54
2023-05-19T03:04:24.130Z,0.54
2023-05-19T03:06:50.868Z,0.62
2023-05-19T03:09:17.516Z,0.43
2023-05-19T03:11:44.100Z,0.38
2023-05-19T03:14:10.784Z,0.28
2023-05-19T03:16:41.163Z,0.31
2023-05-19T03:19:09.296Z,0.27
2023-05-19T03:21:36.187Z,0.31
2023-05-19T03:24:02.906Z,0.34
2023-05-19T03:26:29.459Z,0.41
2023-05-19T03:28:56.271Z,0.46
2023-05-19T03:31:22.972Z,0.45
2023-05-19T03:33:49.596Z,0.51
2023-05-19T03:36:16.262Z,0.60
2023-05-19T03:38:42.879Z,0.63
2023-05-19T03:41:09.600Z,0.74
2023-05-19T03:43:36.241Z,0.79
2023-05-19T03:46:02.915Z,0.96
2023-05-19T03:48:29.610Z,1.05
2023-05-19T03:50:56.239Z,1.21
2023-05-19T03:53:22.936Z,1.38
2023-05-19T03:55:50.685Z,1.55
2023-05-19T03:58:17.390Z,1.79
2023-05-19T04:00:44.024Z,1.93
2023-05-19T04:03:10.855Z,2.16
2023-05-19T04:05:37.715Z,2.36
2023-05-19T04:08:04.472Z,2.58
2023-05-19T04:10:31.222Z,2.78
2023-05-19T04:12:58.145Z,2.86
2023-05-19T04:15:24.885Z,3.02
2023-05-19T04:17:51.822Z,3.36
2023-05-19T04:20:18.575Z,3.51
2023-05-19T04:22:45.344Z,3.60
2023-05-19T04:25:12.053Z,3.77
2023-05-19T04:27:41.016Z,3.86
2023-05-19T04:30:08.861Z,4.04
2023-05-19T04:32:37.540Z,4.19
2023-05-19T04:35:04.806Z,4.34
2023-05-19T04:37:31.589Z,4.47
2023-05-19T04:39:58.242Z,4.62
2023-05-19T04:42:26.214Z,4.73
2023-05-19T04:44:53.044Z,4.83
2023-05-19T04:47:21.662Z,4.91
2023-05-19T04:49:48.493Z,5.05
2023-05-19T04:52:16.019Z,5.13
2023-05-19T04:54:44.349Z,5.33
2023-05-19T04:57:13.053Z,5.47
2023-05-19T04:59:40.002Z,5.49
2023-05-19T05:02:06.880Z,5.76
2023-05-19T05:04:33.891Z,5.93
2023-05-19T05:07:00.729Z,6.11
2023-05-19T05:09:27.615Z,6.33
2023-05-19T05:11:54.799Z,6.38
2023-05-19T05:14:21.811Z,6.73
2023-05-19T05:16:49.623Z,6.96
2023-05-19T05:19:16.697Z,7.26
2023-05-19T05:21:43.617Z,7.49
2023-05-19T05:24:17.003Z,7.84
2023-05-19T05:26:44.936Z,7.99
2023-05-19T05:29:15.629Z,7.94
2023-05-19T05:31:42.837Z,8.19
2023-05-19T05:34:12.697Z,8.22
2023-05-19T05:36:42.586Z,8.38
2023-05-19T05:39:10.108Z,8.67
2023-05-19T05:41:37.070Z,8.84
2023-05-19T05:44:05.208Z,8.76
2023-05-19T05:46:32.714Z,8.94
2023-05-19T05:48:59.897Z,9.04
2023-05-19T05:51:28.069Z,9.02
2023-05-19T05:53:55.700Z,9.41
2023-05-19T05:56:22.565Z,9.40
2023-05-19T05:58:49.730Z,9.44
2023-05-19T06:01:17.914Z,9.45
2023-05-19T06:03:45.115Z,9.74
2023-05-19T06:06:13.935Z,9.88
2023-05-19T06:08:40.644Z,9.71
2023-05-19T06:11:08.791Z,9.88
2023-05-19T06:13:36.793Z,10.07
2023-05-19T06:16:03.995Z,9.98
2023-05-19T06:18:30.717Z,10.12
2023-05-19T06:20:57.532Z,10.26
2023-05-19T06:23:25.289Z,10.22
2023-05-19T06:25:52.968Z,10.48
2023-05-19T06:28:19.659Z,10.52
2023-05-19T06:30:46.432Z,10.55
2023-05-19T06:33:13.066Z,10.54
2023-05-19T06:35:42.470Z,10.85
2023-05-19T06:38:09.085Z,10.87
2023-05-19T06:40:37.036Z,11.18
2023-05-19T06:43:04.858Z,11.30
2023-05-19T06:45:31.657Z,11.80
2023-05-19T06:47:58.555Z,12.40
2023-05-19T06:50:26.619Z,12.42
2023-05-19T06:52:53.244Z,12.94
2023-05-19T06:55:20.068Z,13.07
2023-05-19T06:57:46.708Z,13.30
2023-05-19T07:00:16.798Z,13.64
2023-05-19T07:02:45.018Z,13.56
2023-05-19T07:05:12.804Z,13.70
2023-05-19T07:07:39.773Z,13.99
2023-05-19T07:10:07.047Z,14.63
2023-05-19T07:12:33.753Z,14.97
2023-05-19T07:15:00.689Z,15.36
2023-05-19T07:17:27.416Z,15.51
2023-05-19T07:19:54.059Z,14.28
2023-05-19T07:22:21.236Z,14.92
2023-05-19T07:24:47.969Z,15.14
2023-05-19T07:27:14.630Z,15.14
2023-05-19T07:29:41.300Z,15.06
2023-05-19T07:32:07.972Z,15.46
2023-05-19T07:34:34.680Z,15.74
2023-05-19T07:37:02.134Z,15.91
2023-05-19T07:39:29.815Z,15.61
2023-05-19T07:41:57.306Z,15.15
2023-05-19T07:44:23.941Z,15.20
2023-05-19T07:46:50.795Z,15.06
2023-05-19T07:49:17.486Z,15.11
2023-05-19T07:51:45.185Z,15.40
2023-05-19T07:54:12.900Z,16.00
2023-05-19T07:56:39.927Z,16.44
2023-05-19T07:59:07.976Z,16.90
2023-05-19T08:01:34.560Z,17.51
2023-05-19T08:04:01.373Z,16.39
2023-05-19T08:06:30.081Z,15.95
2023-05-19T08:08:56.715Z,16.01
2023-05-19T08:11:24.510Z,16.01
2023-05-19T08:13:51.771Z,16.07
2023-05-19T08:16:18.700Z,16.45
2023-05-19T08:18:45.495Z,16.47
2023-05-19T08:21:12.383Z,16.81
2023-05-19T08:23:39.117Z,17.17
2023-05-19T08:26:05.866Z,17.56
2023-05-19T08:28:32.569Z,18.17
2023-05-19T08:31:02.454Z,17.70
2023-05-19T08:33:29.110Z,17.15
2023-05-19T08:35:58.192Z,18.05
2023-05-19T08:38:26.338Z,18.06
2023-05-19T08:40:53.280Z,17.74
2023-05-19T08:43:21.185Z,17.26
2023-05-19T08:45:48.504Z,17.74
2023-05-19T08:48:17.482Z,17.33
2023-05-19T08:50:57.043Z,17.45
2023-05-19T08:53:34.858Z,17.33
2023-05-19T08:56:11.514Z,16.97
2023-05-19T08:58:43.939Z,17.17
2023-05-19T09:01:14.559Z,17.61
2023-05-19T09:03:43.062Z,17.88
2023-05-19T09:06:13.962Z,18.12
2023-05-19T09:08:42.615Z,17.39
2023-05-19T09:11:11.097Z,17.15
2023-05-19T09:13:39.077Z,17.10
2023-05-19T09:16:06.837Z,17.35
2023-05-19T09:18:34.199Z,17.20
2023-05-19T09:21:03.198Z,17.50
2023-05-19T09:23:36.561Z,17.20
2023-05-19T09:26:08.082Z,17.61
2023-05-19T09:28:36.865Z,17.68
2023-05-19T09:31:06.802Z,17.56
2023-05-19T09:33:36.036Z,17.40
2023-05-19T09:36:05.808Z,16.94
2023-05-19T09:38:33.253Z,16.82
2023-05-19T09:41:01.355Z,17.28
2023-05-19T09:43:30.045Z,17.88
2023-05-19T09:46:03.648Z,18.32
2023-05-19T09:48:30.562Z,18.45
2023-05-19T09:50:58.168Z,18.77
2023-05-19T09:53:25.509Z,18.74
2023-05-19T09:55:57.904Z,19.35
2023-05-19T09:58:25.161Z,19.71
2023-05-19T10:00:54.754Z,20.09
2023-05-19T10:03:24.035Z,20.14
2023-05-19T10:05:53.076Z,20.17
2023-05-19T10:08:20.372Z,19.95
2023-05-19T10:10:47.861Z,19.54
2023-05-19T10:13:16.551Z,19.40
2023-05-19T10:15:57.241Z,19.58
2023-05-19T10:18:25.910Z,19.40
2023-05-19T10:20:53.936Z,19.30
2023-05-19T10:23:20.618Z,18.45
2023-05-19T10:25:49.437Z,18.71
2023-05-19T10:28:21.165Z,18.83
2023-05-19T10:30:53.123Z,18.68
2023-05-19T10:33:29.392Z,18.52
2023-05-19T10:36:25.477Z,18.53
2023-05-19T10:39:17.475Z,19.03
2023-05-19T10:42:11.458Z,19.18
2023-05-19T10:44:53.457Z,19.04
2023-05-19T10:47:26.413Z,19.00
2023-05-19T10:49:56.325Z,18.93
2023-05-19T10:52:29.778Z,19.33
2023-05-19T10:54:58.332Z,19.74
2023-05-19T10:57:28.554Z,20.05
2023-05-19T10:59:57.151Z,20.21
2023-05-19T11:02:43.254Z,20.00
2023-05-19T11:05:18.580Z,19.88
2023-05-19T11:08:02.314Z,19.52
2023-05-19T11:10:29.301Z,19.46
2023-05-19T11:12:58.272Z,19.66
2023-05-19T11:15:28.767Z,19.29
2023-05-19T11:17:55.608Z,19.61
2023-05-19T11:20:28.874Z,19.97
2023-05-19T11:23:17.914Z,20.05
2023-05-19T11:25:49.513Z,19.86
2023-05-19T11:28:19.542Z,19.70
2023-05-19T11:30:52.284Z,19.41
2023-05-19T11:33:20.721Z,19.55
2023-05-19T11:35:49.829Z,19.19
2023-05-19T11:38:20.483Z,19.43
2023-05-19T11:40:49.746Z,19.49
2023-05-19T11:43:16.811Z,19.78
2023-05-19T11:45:44.109Z,19.90
2023-05-19T11:48:16.074Z,19.79
2023-05-19T11:50:44.211Z,19.61
2023-05-19T11:53:16.366Z,19.92
2023-05-19T11:55:47.555Z,20.39
2023-05-19T11:58:14.581Z,19.86
2023-05-19T12:00:43.392Z,19.94
2023-05-19T12:03:11.563Z,19.69
2023-05-19T12:05:44.912Z,19.71
2023-05-19T12:08:12.531Z,19.62
2023-05-19T12:10:40.130Z,19.54
2023-05-19T12:15:36.687Z,19.72
2023-05-19T12:18:04.146Z,20.17
2023-05-19T12:20:36.172Z,20.29
2023-05-19T12:23:03.867Z,19.82
2023-05-19T12:25:32.456Z,19.51
2023-05-19T12:28:00.909Z,19.36
2023-05-19T12:30:29.291Z,19.75
2023-05-19T12:33:00.402Z,19.99
2023-05-19T12:35:33.289Z,19.69
2023-05-19T12:38:04.897Z,19.78
2023-05-19T12:40:32.023Z,19.52
2023-05-19T12:42:59.537Z,19.99
2023-05-19T12:45:28.432Z,18.86
2023-05-19T12:47:56.257Z,18.67
2023-05-19T12:50:30.537Z,18.77
2023-05-19T12:52:59.590Z,19.52
2023-05-19T12:55:26.515Z,19.78
2023-05-19T12:57:56.888Z,19.84
2023-05-19T13:00:32.635Z,19.24
2023-05-19T13:03:00.881Z,18.88
2023-05-19T13:05:29.193Z,19.74
2023-05-19T13:08:10.174Z,19.74
2023-05-19T13:10:38.572Z,19.91
2023-05-19T13:13:08.415Z,20.20
2023-05-19T13:15:38.109Z,20.58
2023-05-19T13:18:06.426Z,20.55
2023-05-19T13:20:33.732Z,20.77
2023-05-19T13:23:01.148Z,20.79
2023-05-19T13:25:28.378Z,20.24
2023-05-19T13:27:55.407Z,20.89
2023-05-19T13:30:22.745Z,20.24
2023-05-19T13:32:49.815Z,19.64
2023-05-19T13:35:16.710Z,20.01
2023-05-19T13:37:43.583Z,19.28
2023-05-19T13:40:11.337Z,19.57
2023-05-19T13:42:38.161Z,20.10
2023-05-19T13:45:05.571Z,19.94
2023-05-19T13:47:32.366Z,19.83
2023-05-19T13:49:59.325Z,20.31
2023-05-19T13:52:27.545Z,19.79
2023-05-19T13:54:56.703Z,19.45
2023-05-19T13:57:26.535Z,19.39
2023-05-19T14:00:02.461Z,19.69
2023-05-19T14:02:30.521Z,19.87
2023-05-19T14:04:57.662Z,20.43
2023-05-19T14:07:25.737Z,20.61
2023-05-19T14:09:53.141Z,20.53
2023-05-19T14:12:23.255Z,19.41
2023-05-19T14:14:52.180Z,18.60
2023-05-19T14:17:19.043Z,18.64
2023-05-19T14:19:45.761Z,18.77
2023-05-19T14:22:13.489Z,19.33
2023-05-19T14:24:41.585Z,19.49
2023-05-19T14:27:08.240Z,19.53
2023-05-19T14:29:35.503Z,19.23
2023-05-19T14:32:03.449Z,19.15
2023-05-19T14:34:30.480Z,18.79
2023-05-19T14:36:57.234Z,19.12
2023-05-19T14:39:23.873Z,19.13
2023-05-19T14:41:52.011Z,19.60
2023-05-19T14:44:18.809Z,19.89
2023-05-19T14:46:45.543Z,19.29
2023-05-19T14:49:12.204Z,19.33
2023-05-19T14:51:38.909Z,19.82
2023-05-19T14:54:05.610Z,20.45
2023-05-19T14:56:32.277Z,20.52
2023-05-19T14:58:58.900Z,20.19
2023-05-19T15:01:25.910Z,19.29
2023-05-19T15:03:52.790Z,19.29
2023-05-19T15:06:19.567Z,18.80
2023-05-19T15:08:46.456Z,18.93
2023-05-19T15:11:13.187Z,19.22
2023-05-19T15:13:40.787Z,19.61
2023-05-19T15:16:17.645Z,20.21
2023-05-19T15:18:45.236Z,20.01
2023-05-19T15:21:12.499Z,20.05
2023-05-19T15:23:39.141Z,19.50
2023-05-19T15:26:06.024Z,19.39
2023-05-19T15:28:33.595Z,19.55
2023-05-19T15:31:00.428Z,19.56
2023-05-19T15:33:27.202Z,19.25
2023-05-19T15:35:54.347Z,19.44
2023-05-19T15:38:21.186Z,19.82
2023-05-19T15:40:48.179Z,19.65
2023-05-19T15:43:14.984Z,20.02
2023-05-19T15:45:41.689Z,19.75
2023-05-19T15:48:08.817Z,19.66
2023-05-19T15:50:36.139Z,19.34
2023-05-19T15:53:03.535Z,19.35
2023-05-19T15:55:30.505Z,19.96
2023-05-19T15:57:57.287Z,20.67
2023-05-19T16:00:23.941Z,20.50
2023-05-19T16:02:50.777Z,20.30
2023-05-19T16:05:17.914Z,20.59
2023-05-19T16:07:45.084Z,20.45
2023-05-19T16:10:11.790Z,20.63
2023-05-19T16:12:38.609Z,20.37
2023-05-19T16:15:05.781Z,20.46
2023-05-19T16:17:32.621Z,20.41
2023-05-19T16:19:59.294Z,20.12
2023-05-19T16:22:26.210Z,19.61
2023-05-19T16:24:53.145Z,19.29
2023-05-19T16:27:19.921Z,19.16
2023-05-19T16:29:46.607Z,18.93
2023-05-19T16:32:13.379Z,18.56
2023-05-19T16:34:40.337Z,18.48
2023-05-19T16:37:07.366Z,18.35
2023-05-19T16:39:37.321Z,18.48
2023-05-19T16:42:04.783Z,18.44
2023-05-19T16:44:31.533Z,18.49
2023-05-19T16:46:58.168Z,17.95
2023-05-19T16:49:24.812Z,18.11
2023-05-19T16:51:53.152Z,18.32
2023-05-19T16:54:21.380Z,18.03
2023-05-19T16:56:50.494Z,17.96
2023-05-19T16:59:17.478Z,17.82
2023-05-19T17:01:44.830Z,17.85
2023-05-19T17:04:11.984Z,17.36
2023-05-19T17:06:39.249Z,17.53
2023-05-19T17:09:06.184Z,17.48
2023-05-19T17:11:32.929Z,17.64
2023-05-19T17:13:59.924Z,17.66
2023-05-19T17:16:27.744Z,17.64
2023-05-19T17:18:54.520Z,17.47
2023-05-19T17:21:21.552Z,17.22
2023-05-19T17:23:49.430Z,16.96
2023-05-19T17:26:16.744Z,16.94
2023-05-19T17:28:43.542Z,16.87
2023-05-19T17:31:12.034Z,16.81
2023-05-19T17:33:39.452Z,16.70
2023-05-19T17:36:07.288Z,16.97
2023-05-19T17:38:34.547Z,16.79
2023-05-19T17:41:02.446Z,16.68
2023-05-19T17:43:29.275Z,16.89
2023-05-19T17:45:56.786Z,16.95
2023-05-19T17:48:25.940Z,16.98
2023-05-19T17:50:52.641Z,16.87
2023-05-19T17:53:19.698Z,16.72
2023-05-19T17:55:51.803Z,16.50
2023-05-19T17:58:19.803Z,16.49
2023-05-19T18:00:46.653Z,16.20
2023-05-19T18:03:13.933Z,16.00
2023-05-19T18:05:43.344Z,15.75
2023-05-19T18:08:14.969Z,15.44
2023-05-19T18:10:42.619Z,15.21
2023-05-19T18:13:15.266Z,15.00
2023-05-19T18:15:41.965Z,14.83
2023-05-19T18:18:10.705Z,14.72
2023-05-19T18:20:44.286Z,14.60
2023-05-19T18:23:11.479Z,14.45
2023-05-19T18:25:39.387Z,14.43
2023-05-19T18:28:06.058Z,14.45
2023-05-19T18:30:33.234Z,14.47
2023-05-19T18:33:03.678Z,14.35
2023-05-19T18:35:30.843Z,14.26
2023-05-19T18:37:57.608Z,14.04
2023-05-19T18:40:24.677Z,13.87
2023-05-19T18:42:52.370Z,13.82
2023-05-19T18:45:19.237Z,13.70
2023-05-19T18:47:46.534Z,13.54
2023-05-19T18:50:14.518Z,13.35
2023-05-19T18:52:41.184Z,13.10
2023-05-19T18:55:14.871Z,12.95
2023-05-19T18:57:41.980Z,12.82
2023-05-19T19:00:09.278Z,12.69
2023-05-19T19:02:36.102Z,12.56
2023-05-19T19:05:04.106Z,12.42
2023-05-19T19:07:31.994Z,12.27
2023-05-19T19:09:58.733Z,12.15
2023-05-19T19:12:27.441Z,12.07
2023-05-19T19:14:54.892Z,11.91
2023-05-19T19:17:22.085Z,11.79
2023-05-19T19:19:49.117Z,11.68
2023-05-19T19:22:16.113Z,11.53
2023-05-19T19:24:43.192Z,11.33
2023-05-19T19:27:10.893Z,11.30
2023-05-19T19:29:37.697Z,11.23
2023-05-19T19:32:04.883Z,11.08
2023-05-19T19:34:31.771Z,11.19
2023-05-19T19:36:58.431Z,11.12
2023-05-19T19:39:26.110Z,11.06
2023-05-19T19:41:55.190Z,11.08
2023-05-19T19:44:23.981Z,11.04
2023-05-19T19:46:51.959Z,10.92
2023-05-19T19:49:20.116Z,10.79
2023-05-19T19:51:46.935Z,10.79
2023-05-19T19:54:13.625Z,10.71
2023-05-19T19:56:40.886Z,10.56
2023-05-19T19:59:07.725Z,10.41
2023-05-19T20:01:34.851Z,10.31
2023-05-19T20:04:01.757Z,10.12
2023-05-19T20:06:28.610Z,9.98
2023-05-19T20:08:55.311Z,9.81
2023-05-19T20:11:23.842Z,9.56
2023-05-19T20:13:50.658Z,9.37
2023-05-19T20:16:17.395Z,9.24
2023-05-19T20:18:44.116Z,9.10
2023-05-19T20:21:10.787Z,8.91
2023-05-19T20:23:39.088Z,8.82
2023-05-19T20:28:36.533Z,8.32
2023-05-19T20:31:03.172Z,8.31
2023-05-19T20:33:29.839Z,8.16
2023-05-19T20:35:56.466Z,8.05
2023-05-19T20:38:23.098Z,7.70
2023-05-19T20:40:49.849Z,7.89
2023-05-19T20:43:16.596Z,7.85
2023-05-19T20:45:44.259Z,7.88
2023-05-19T20:48:11.412Z,8.01
2023-05-19T20:50:39.348Z,8.07
2023-05-19T20:53:07.435Z,7.99
2023-05-19T20:55:37.523Z,8.04
2023-05-19T20:58:04.632Z,8.00
2023-05-19T21:00:31.324Z,7.98
2023-05-19T21:02:58.172Z,7.93
2023-05-19T21:05:25.035Z,7.88
2023-05-19T21:07:51.776Z,7.86
2023-05-19T21:10:18.444Z,7.83
2023-05-19T21:12:45.732Z,7.91
2023-05-19T21:15:12.670Z,7.94
2023-05-19T21:17:39.484Z,7.93
2023-05-19T21:20:06.652Z,8.10
2023-05-19T21:22:35.646Z,8.03
2023-05-19T21:25:02.311Z,7.93
2023-05-19T21:27:29.054Z,7.88
2023-05-19T21:29:55.744Z,7.72
2023-05-19T21:32:22.555Z,7.64
2023-05-19T21:34:49.208Z,7.58
2023-05-19T21:37:17.377Z,7.44
2023-05-19T21:39:44.680Z,7.54
2023-05-19T21:42:11.413Z,7.52
2023-05-19T21:44:38.219Z,7.49
2023-05-19T21:47:04.994Z,7.53
2023-05-19T21:49:31.706Z,7.52
2023-05-19T21:51:58.804Z,7.52
2023-05-19T21:54:25.451Z,7.49
2023-05-19T21:56:52.198Z,7.51
2023-05-19T21:59:19.558Z,7.52
2023-05-19T22:01:46.833Z,7.34
2023-05-19T22:04:16.460Z,7.38
2023-05-19T22:06:43.325Z,7.34
2023-05-19T22:09:10.426Z,7.23
2023-05-19T22:11:37.172Z,7.09
2023-05-19T22:14:03.806Z,6.98
2023-05-19T22:16:31.161Z,6.82
2023-05-19T22:18:57.900Z,6.71
2023-05-19T22:21:24.771Z,6.88
2023-05-19T22:23:52.149Z,6.82
2023-05-19T22:26:18.766Z,6.73
2023-05-19T22:28:45.512Z,6.64
2023-05-19T22:31:12.438Z,6.50
2023-05-19T22:33:39.211Z,6.42
2023-05-19T22:36:06.414Z,6.34
2023-05-19T22:38:33.082Z,6.27
2023-05-19T22:40:59.766Z,6.21
2023-05-19T22:43:26.504Z,6.14
2023-05-19T22:45:53.230Z,6.13
2023-05-19T22:48:19.980Z,6.24
2023-05-19T22:50:46.813Z,6.21
2023-05-19T22:53:13.497Z,6.16
2023-05-19T22:55:40.450Z,6.06
2023-05-19T22:58:07.189Z,5.99
2023-05-19T23:00:33.890Z,5.99
2023-05-19T23:03:00.539Z,5.96
2023-05-19T23:05:27.250Z,5.94
2023-05-19T23:07:54.028Z,5.98
2023-05-19T23:10:20.579Z,5.94
2023-05-19T23:12:47.276Z,5.97
2023-05-19T23:15:13.869Z,5.91
2023-05-19T23:17:40.595Z,5.96
2023-05-19T23:20:07.891Z,5.79
2023-05-19T23:22:34.614Z,5.93
2023-05-19T23:25:05.655Z,6.11
2023-05-19T23:27:32.312Z,6.31
2023-05-19T23:29:59.073Z,6.47
2023-05-19T23:32:25.932Z,6.59
2023-05-19T23:34:52.551Z,6.62
2023-05-19T23:37:19.250Z,6.68
2023-05-19T23:39:46.042Z,6.74
2023-05-19T23:42:13.217Z,6.76
2023-05-19T23:44:40.265Z,6.77
2023-05-19T23:47:07.066Z,6.82
2023-05-19T23:49:33.846Z,6.87
2023-05-19T23:52:00.571Z,6.83
2023-05-19T23:54:27.237Z,6.77
2023-05-19T23:56:55.832Z,6.73
2023-05-19T23:59:22.597Z,6.65
